Main page
METAR-TAF:

METAR-TAF

Airports :

Maharana Pratap Airport

Udaipur, India

latitude: 24-37-04N, longitude: 73-53-46E, elevation: 513 m

Current weather observation

The report was made 55 minutes ago, at 07:00 UTC
Calm wind
Temperature 28°C
Humidity 15%
Pressure 1019 hPa
Visibility: 6000 m

METAR: VAUD 200700Z 17000KT 6000 NSC 28/M01 Q1019 NOSIG

Time: 13:25 (07:55 UTC)

Forecast

The report was made 5 hours and 55 minutes ago, at 02:00 UTC
Forecast valid from 20 at 03 UTC to 20 at 12 UTC
Wind 5 kt from the South/Southeast
Visibility: 3000 m
Few clouds at a height of 10000 ft
haze
Becoming
from 20 at 04 UTC to 20 at 06 UTC
Wind 8 kt from the South/Southwest
Visibility: 5000 m
haze

TAF: VAUD 200200Z 2003/2012 16005KT 3000 HZ FEW100 BECMG 2004/2006 20008KT 5000 HZ

Weather observations and forecasts of more than 4000 airports (METAR and TAF reports).

The available stations are represented by yellow and red dots on the map.

Hover mouse over dot to see the name of the station.

Then click to see weather observations and forecasts.

To change the map : click on the green buttons with a black cross to zoom in, on the green button with a dash to zoom out, or on the green arrows for adjacent maps.


METAR-TAF: